createdAt,value
2018-04-26T00:00:29.177Z,66.80
2018-04-26T00:01:30.233Z,66.60
2018-04-26T00:02:31.324Z,67.50
2018-04-26T00:03:32.374Z,67.30
2018-04-26T00:04:33.426Z,66.50
2018-04-26T00:05:34.484Z,66.50
2018-04-26T00:06:35.552Z,67.30
2018-04-26T00:07:36.619Z,67.00
2018-04-26T00:08:37.696Z,67.30
2018-04-26T00:09:38.763Z,67.20
2018-04-26T00:10:39.824Z,67.30
2018-04-26T00:11:41.623Z,67.30
2018-04-26T00:12:42.704Z,67.30
2018-04-26T00:13:44.534Z,67.40
2018-04-26T00:14:45.600Z,67.40
2018-04-26T00:15:46.682Z,67.30
2018-04-26T00:16:47.732Z,66.60
2018-04-26T00:17:48.807Z,67.10
2018-04-26T00:18:49.912Z,66.70
2018-04-26T00:19:50.984Z,66.80
2018-04-26T00:20:52.043Z,67.30
2018-04-26T00:21:53.095Z,67.10
2018-04-26T00:22:54.151Z,67.10
2018-04-26T00:23:55.215Z,66.60
2018-04-26T00:24:56.258Z,65.80
2018-04-26T00:25:57.327Z,66.30
2018-04-26T00:26:58.387Z,66.10
2018-04-26T00:28:00.180Z,65.90
2018-04-26T00:29:01.252Z,65.80
2018-04-26T00:30:02.323Z,65.70
2018-04-26T00:31:03.408Z,66.00
2018-04-26T00:32:05.217Z,65.60
2018-04-26T00:33:06.283Z,65.60
2018-04-26T00:34:07.335Z,65.00
2018-04-26T00:35:08.400Z,65.90
2018-04-26T00:36:09.475Z,65.90
2018-04-26T00:37:10.540Z,65.50
2018-04-26T00:38:11.618Z,64.90
2018-04-26T00:39:12.674Z,64.60
2018-04-26T00:40:13.767Z,64.60
2018-04-26T00:41:14.828Z,64.60
2018-04-26T00:42:15.896Z,64.60
2018-04-26T00:43:16.975Z,64.70
2018-04-26T00:44:18.047Z,64.30
2018-04-26T00:45:19.859Z,64.20
2018-04-26T00:46:20.932Z,64.20
2018-04-26T00:47:21.986Z,64.80
2018-04-26T00:48:23.079Z,63.40
2018-04-26T00:49:24.144Z,63.40
2018-04-26T00:50:25.210Z,63.90
2018-04-26T00:51:38.503Z,63.90
2018-04-26T00:52:40.286Z,64.10
2018-04-26T00:53:41.356Z,64.20
2018-04-26T00:54:42.418Z,64.50
2018-04-26T00:55:43.471Z,64.50
2018-04-26T00:56:44.540Z,64.00
2018-04-26T00:57:46.386Z,64.30
2018-04-26T00:58:47.484Z,64.30
2018-04-26T00:59:48.551Z,65.40
2018-04-26T01:00:49.615Z,64.50
2018-04-26T01:01:50.679Z,64.70
2018-04-26T01:02:51.743Z,64.60
2018-04-26T01:03:52.819Z,64.80
2018-04-26T01:04:53.896Z,64.80
2018-04-26T01:05:54.974Z,64.60
2018-04-26T01:06:56.050Z,64.60
2018-04-26T01:07:57.124Z,64.40
2018-04-26T01:08:58.931Z,65.50
2018-04-26T01:09:59.990Z,64.80
2018-04-26T01:11:01.064Z,64.30
2018-04-26T01:12:02.128Z,64.30
2018-04-26T01:13:03.199Z,64.10
2018-04-26T01:14:04.282Z,64.10
2018-04-26T01:15:05.354Z,64.20
2018-04-26T01:16:06.417Z,65.00
2018-04-26T01:17:08.245Z,64.20
2018-04-26T01:18:09.336Z,64.20
2018-04-26T01:19:10.408Z,63.70
2018-04-26T01:20:12.219Z,64.80
2018-04-26T01:21:13.280Z,64.70
2018-04-26T01:22:15.089Z,65.20
2018-04-26T01:23:16.890Z,64.80
2018-04-26T01:24:18.696Z,64.80
2018-04-26T01:25:19.755Z,64.80
2018-04-26T01:26:20.819Z,64.80
2018-04-26T01:27:21.915Z,64.60
2018-04-26T01:28:22.965Z,64.80
2018-04-26T01:29:24.021Z,64.20
2018-04-26T01:30:25.102Z,65.00
2018-04-26T01:31:26.176Z,64.40
2018-04-26T01:32:27.247Z,64.70
2018-04-26T01:33:28.302Z,64.40
2018-04-26T01:34:29.358Z,64.20
2018-04-26T01:35:31.166Z,64.70
2018-04-26T01:36:44.404Z,64.70
2018-04-26T01:37:47.483Z,64.20
2018-04-26T01:38:48.539Z,65.40
2018-04-26T01:39:49.599Z,64.90
2018-04-26T01:40:50.685Z,64.70
2018-04-26T01:41:52.519Z,65.20
2018-04-26T01:42:53.589Z,65.20
2018-04-26T01:43:54.663Z,64.80
2018-04-26T01:44:55.736Z,65.50
2018-04-26T01:45:57.546Z,64.50
2018-04-26T01:46:58.628Z,64.50
2018-04-26T01:48:00.415Z,64.10
2018-04-26T01:49:01.471Z,64.10
2018-04-26T01:50:02.542Z,64.80
2018-04-26T01:51:04.402Z,64.90
2018-04-26T01:52:06.199Z,63.90
2018-04-26T01:53:07.279Z,63.80
2018-04-26T01:54:08.379Z,64.50
2018-04-26T01:55:09.459Z,64.10
2018-04-26T01:56:10.502Z,64.50
2018-04-26T01:57:11.594Z,63.60
2018-04-26T01:58:13.411Z,63.80
2018-04-26T01:59:14.481Z,63.80
2018-04-26T02:00:16.313Z,63.60
2018-04-26T02:01:17.368Z,63.60
2018-04-26T02:02:19.166Z,63.60
2018-04-26T02:03:20.243Z,63.70
2018-04-26T02:04:22.059Z,62.80
2018-04-26T02:05:23.165Z,63.50
2018-04-26T02:06:24.245Z,62.80
2018-04-26T02:07:25.323Z,63.30
2018-04-26T02:08:26.384Z,63.30
2018-04-26T02:09:27.453Z,64.70
2018-04-26T02:10:29.263Z,63.80
2018-04-26T02:11:30.332Z,63.80
2018-04-26T02:12:32.136Z,63.80
2018-04-26T02:13:33.212Z,63.80
2018-04-26T02:14:34.278Z,63.50
2018-04-26T02:15:35.353Z,64.30
2018-04-26T02:16:36.410Z,63.70
2018-04-26T02:17:38.214Z,63.50
2018-04-26T02:18:39.288Z,63.50
2018-04-26T02:19:41.118Z,65.30
2018-04-26T02:20:42.203Z,65.20
2018-04-26T02:21:43.267Z,64.60
2018-04-26T02:22:44.312Z,65.30
2018-04-26T02:23:45.388Z,64.80
2018-04-26T02:24:46.462Z,64.80
2018-04-26T02:25:47.523Z,64.60
2018-04-26T02:26:48.580Z,65.40
2018-04-26T02:27:50.376Z,65.00
2018-04-26T02:28:51.445Z,65.00
2018-04-26T02:29:52.509Z,66.10
2018-04-26T02:30:53.622Z,65.90
2018-04-26T02:31:54.666Z,64.90
2018-04-26T02:32:55.726Z,65.30
2018-04-26T02:33:56.795Z,64.60
2018-04-26T02:34:57.851Z,64.80
2018-04-26T02:35:58.924Z,64.60
2018-04-26T02:36:59.983Z,65.40
2018-04-26T02:38:01.039Z,65.50
2018-04-26T02:39:02.115Z,65.30
2018-04-26T02:40:03.187Z,65.70
2018-04-26T02:41:04.277Z,65.90
2018-04-26T02:42:05.343Z,65.80
2018-04-26T02:43:06.414Z,65.90
2018-04-26T02:44:07.495Z,65.10
2018-04-26T02:45:08.617Z,65.20
2018-04-26T02:46:09.697Z,65.80
2018-04-26T02:47:10.782Z,65.20
2018-04-26T02:48:11.835Z,64.40
2018-04-26T02:49:13.665Z,66.10
2018-04-26T02:50:14.733Z,65.30
2018-04-26T02:51:16.551Z,65.60
2018-04-26T02:52:17.614Z,65.60
2018-04-26T02:53:19.422Z,65.90
2018-04-26T02:54:20.483Z,66.00
2018-04-26T02:55:21.539Z,65.90
2018-04-26T02:56:22.611Z,66.00
2018-04-26T02:57:23.674Z,66.00
2018-04-26T02:58:24.767Z,66.00
2018-04-26T02:59:25.831Z,66.10
2018-04-26T03:00:26.915Z,66.10
2018-04-26T03:01:28.017Z,66.10
2018-04-26T03:02:29.067Z,66.10
2018-04-26T03:03:30.139Z,66.20
2018-04-26T03:04:31.195Z,66.90
2018-04-26T03:05:32.296Z,65.90
2018-04-26T03:06:33.361Z,65.90
2018-04-26T03:07:34.435Z,66.00
2018-04-26T03:08:35.534Z,65.80
2018-04-26T03:09:37.357Z,67.00
2018-04-26T03:10:38.439Z,66.20
2018-04-26T03:11:40.251Z,66.30
2018-04-26T03:12:41.336Z,66.30
2018-04-26T03:13:42.392Z,66.50
2018-04-26T03:14:43.479Z,66.70
2018-04-26T03:15:45.299Z,67.20
2018-04-26T03:16:46.347Z,67.10
2018-04-26T03:17:48.145Z,67.20
2018-04-26T03:18:49.217Z,67.10
2018-04-26T03:19:50.287Z,67.60
2018-04-26T03:20:51.343Z,67.00
2018-04-26T03:21:52.399Z,67.00
2018-04-26T03:22:53.459Z,67.20
2018-04-26T03:23:55.264Z,67.40
2018-04-26T03:24:56.322Z,67.40
2018-04-26T03:25:57.392Z,66.90
2018-04-26T03:26:58.457Z,67.50
2018-04-26T03:27:59.519Z,67.60
2018-04-26T03:29:00.590Z,67.10
2018-04-26T03:30:01.651Z,67.30
2018-04-26T03:31:02.806Z,67.40
2018-04-26T03:32:03.795Z,67.00
2018-04-26T03:33:04.862Z,67.00
2018-04-26T03:34:05.935Z,67.50
2018-04-26T03:35:07.745Z,66.50
2018-04-26T03:36:08.811Z,66.60
2018-04-26T03:37:10.625Z,67.00
2018-04-26T03:38:11.686Z,66.90
2018-04-26T03:39:13.507Z,67.00
2018-04-26T03:40:14.607Z,66.70
2018-04-26T03:41:15.670Z,66.50
2018-04-26T03:42:16.738Z,67.00
2018-04-26T03:43:17.791Z,67.30
2018-04-26T03:44:18.837Z,67.20
2018-04-26T03:45:19.898Z,67.20
2018-04-26T03:46:20.951Z,67.60
2018-04-26T03:47:22.014Z,67.90
2018-04-26T03:48:23.067Z,67.70
2018-04-26T03:49:24.123Z,67.90
2018-04-26T03:50:25.178Z,68.00
2018-04-26T03:51:26.268Z,67.80
2018-04-26T03:52:27.342Z,68.30
2018-04-26T03:53:29.146Z,68.40
2018-04-26T03:54:30.219Z,68.40
2018-04-26T03:55:31.273Z,68.50
2018-04-26T03:56:33.058Z,68.30
2018-04-26T03:57:34.131Z,68.30
2018-04-26T03:58:35.196Z,68.30
2018-04-26T03:59:49.282Z,68.40
2018-04-26T04:01:02.678Z,68.40
2018-04-26T04:02:16.120Z,68.70
2018-04-26T04:03:29.543Z,68.60
2018-04-26T04:04:42.746Z,68.40
2018-04-26T04:05:51.823Z,68.60
2018-04-26T04:06:53.615Z,68.40
2018-04-26T04:07:54.715Z,68.30
2018-04-26T04:08:55.793Z,68.40
2018-04-26T04:09:56.847Z,68.20
2018-04-26T04:10:57.918Z,68.00
2018-04-26T04:11:58.988Z,68.30
2018-04-26T04:13:00.066Z,67.90
2018-04-26T04:14:01.871Z,68.40
2018-04-26T04:15:02.967Z,68.40
2018-04-26T04:16:04.035Z,68.40
2018-04-26T04:17:05.108Z,68.50
2018-04-26T04:18:06.926Z,68.10
2018-04-26T04:19:07.982Z,68.00
2018-04-26T04:20:09.043Z,68.50
2018-04-26T04:21:10.106Z,68.50
2018-04-26T04:22:11.170Z,68.50
2018-04-26T04:23:13.003Z,68.10
2018-04-26T04:24:14.074Z,68.10
2018-04-26T04:25:15.878Z,67.90
2018-04-26T04:26:16.934Z,67.90
2018-04-26T04:27:18.011Z,67.90
2018-04-26T04:28:19.090Z,68.40
2018-04-26T04:29:20.161Z,67.60
2018-04-26T04:30:21.276Z,67.70
2018-04-26T04:31:22.343Z,67.00
2018-04-26T04:32:23.403Z,67.00
2018-04-26T04:33:24.467Z,66.80
2018-04-26T04:34:25.536Z,66.40
2018-04-26T04:35:26.587Z,66.40
2018-04-26T04:36:27.650Z,66.60
2018-04-26T04:37:28.731Z,66.60
2018-04-26T04:38:29.783Z,66.60
2018-04-26T04:39:30.831Z,66.50
2018-04-26T04:40:31.887Z,66.10
2018-04-26T04:41:33.011Z,66.40
2018-04-26T04:42:34.077Z,66.50
2018-04-26T04:43:35.138Z,66.20
2018-04-26T04:44:36.283Z,65.90
2018-04-26T04:45:37.357Z,65.70
2018-04-26T04:46:38.454Z,65.50
2018-04-26T04:47:39.520Z,65.70
2018-04-26T04:48:41.344Z,65.60
2018-04-26T04:49:42.415Z,65.60
2018-04-26T04:50:44.207Z,64.10
2018-04-26T04:51:45.276Z,63.90
2018-04-26T04:52:46.336Z,64.50
2018-04-26T04:53:48.164Z,64.00
2018-04-26T04:54:49.964Z,64.10
2018-04-26T04:55:51.023Z,64.10
2018-04-26T04:56:52.187Z,64.50
2018-04-26T04:57:53.978Z,65.00
2018-04-26T04:58:55.046Z,64.90
2018-04-26T04:59:56.106Z,64.80
2018-04-26T05:00:57.176Z,64.30
2018-04-26T05:01:58.335Z,64.50
2018-04-26T05:02:59.388Z,64.10
2018-04-26T05:04:00.439Z,63.90
2018-04-26T05:05:01.553Z,63.50
2018-04-26T05:06:03.359Z,64.00
2018-04-26T05:07:04.428Z,64.00
2018-04-26T05:08:06.236Z,64.40
2018-04-26T05:09:07.312Z,63.70
2018-04-26T05:10:09.156Z,63.70
2018-04-26T05:11:10.959Z,62.90
2018-04-26T05:12:12.014Z,62.90
2018-04-26T05:13:13.077Z,62.90
2018-04-26T05:14:14.183Z,62.70
2018-04-26T05:15:15.254Z,62.90
2018-04-26T05:17:24.980Z,63.10
2018-04-26T05:18:26.062Z,63.00
2018-04-26T05:19:27.153Z,62.90
2018-04-26T05:20:28.271Z,62.40
2018-04-26T05:21:29.322Z,62.50
2018-04-26T05:22:31.118Z,62.80
2018-04-26T05:23:32.255Z,62.70
2018-04-26T05:24:33.314Z,62.60
2018-04-26T05:25:34.476Z,62.80
2018-04-26T05:26:35.475Z,62.60
2018-04-26T05:27:36.538Z,62.50
2018-04-26T05:28:37.615Z,62.50
2018-04-26T05:29:38.674Z,62.10
2018-04-26T05:30:39.774Z,62.20
2018-04-26T05:31:40.851Z,62.30
2018-04-26T05:32:42.667Z,62.30
2018-04-26T05:33:43.752Z,62.30
2018-04-26T05:34:44.869Z,62.40
2018-04-26T05:35:45.911Z,62.20
2018-04-26T05:36:46.981Z,61.60
2018-04-26T05:37:48.103Z,62.10
2018-04-26T05:38:49.206Z,61.40
2018-04-26T05:39:50.299Z,61.50
2018-04-26T05:40:52.344Z,61.30
2018-04-26T05:41:53.421Z,61.40
2018-04-26T05:42:54.479Z,61.10
2018-04-26T05:43:55.566Z,61.20
2018-04-26T05:44:56.643Z,60.80
2018-04-26T05:45:57.717Z,59.70
2018-04-26T05:46:58.769Z,59.90
2018-04-26T05:48:00.599Z,60.10
2018-04-26T05:49:01.684Z,60.10
2018-04-26T05:50:02.755Z,60.10
2018-04-26T05:51:03.854Z,60.40
2018-04-26T05:52:05.660Z,60.00
2018-04-26T05:53:07.471Z,59.90
2018-04-26T05:54:08.539Z,59.80
2018-04-26T05:55:10.346Z,59.30
2018-04-26T05:56:11.417Z,58.80
2018-04-26T05:57:12.491Z,59.10
2018-04-26T05:58:13.561Z,59.40
2018-04-26T05:59:14.645Z,59.50
2018-04-26T06:00:15.740Z,59.10
2018-04-26T06:01:16.797Z,59.60
2018-04-26T06:02:18.599Z,60.30
2018-04-26T06:03:19.655Z,60.30
2018-04-26T06:04:20.701Z,60.90
2018-04-26T06:05:22.517Z,60.50
2018-04-26T06:06:23.609Z,60.50
2018-04-26T06:07:25.440Z,59.80
2018-04-26T06:08:27.239Z,58.70
2018-04-26T06:09:28.286Z,58.60
2018-04-26T06:10:29.374Z,58.80
2018-04-26T06:11:30.432Z,58.80
2018-04-26T06:12:31.503Z,58.50
2018-04-26T06:13:32.563Z,58.70
2018-04-26T06:14:33.664Z,58.70
2018-04-26T06:15:35.502Z,59.40
2018-04-26T06:16:36.558Z,59.30
2018-04-26T06:17:38.362Z,58.50
2018-04-26T06:18:39.441Z,58.40
2018-04-26T06:19:41.292Z,58.80
2018-04-26T06:20:42.425Z,58.80
2018-04-26T06:21:43.494Z,58.70
2018-04-26T06:22:44.599Z,58.80
2018-04-26T06:23:45.693Z,58.70
2018-04-26T06:24:46.764Z,59.10
2018-04-26T06:25:47.830Z,58.90
2018-04-26T06:26:48.899Z,58.60
2018-04-26T06:27:49.958Z,58.50
2018-04-26T06:28:51.745Z,57.90
2018-04-26T06:29:52.815Z,57.90
2018-04-26T06:30:53.886Z,58.10
2018-04-26T06:31:54.948Z,59.40
2018-04-26T06:32:56.038Z,58.40
2018-04-26T06:33:57.094Z,57.20
2018-04-26T06:34:58.166Z,57.20
2018-04-26T06:35:59.311Z,57.20
2018-04-26T06:37:00.374Z,57.40
2018-04-26T06:38:01.460Z,57.50
2018-04-26T06:39:02.543Z,57.70
2018-04-26T06:40:03.623Z,58.00
2018-04-26T06:41:04.710Z,58.20
2018-04-26T06:42:05.764Z,57.80
2018-04-26T06:43:06.844Z,57.30
2018-04-26T06:44:07.915Z,57.30
2018-04-26T06:45:08.986Z,57.30
2018-04-26T06:46:10.065Z,57.30
2018-04-26T06:47:11.879Z,57.00
2018-04-26T06:48:12.942Z,57.00
2018-04-26T06:49:14.031Z,56.30
2018-04-26T06:50:15.090Z,57.00
2018-04-26T06:51:16.174Z,56.40
2018-04-26T06:53:24.947Z,56.20
2018-04-26T06:54:26.007Z,56.30
2018-04-26T06:55:27.064Z,56.60
2018-04-26T06:56:28.908Z,55.90
2018-04-26T06:57:29.966Z,55.80
2018-04-26T06:58:31.115Z,54.50
2018-04-26T06:59:32.176Z,54.70
2018-04-26T07:00:34.026Z,54.70
2018-04-26T07:01:35.821Z,54.30
2018-04-26T07:02:36.900Z,54.20
2018-04-26T07:03:37.952Z,54.50
2018-04-26T07:04:39.018Z,54.70
2018-04-26T07:05:40.157Z,55.00
2018-04-26T07:06:41.890Z,55.40
2018-04-26T07:07:43.063Z,55.40
2018-04-26T07:08:44.155Z,55.70
2018-04-26T07:09:45.214Z,55.80
2018-04-26T07:10:46.282Z,55.80
2018-04-26T07:11:47.374Z,56.20
2018-04-26T07:13:57.087Z,56.10
2018-04-26T07:14:58.167Z,56.00
2018-04-26T07:15:59.230Z,56.50
2018-04-26T07:17:00.312Z,56.40
2018-04-26T07:18:01.379Z,56.60
2018-04-26T07:19:02.464Z,56.50
2018-04-26T07:20:03.561Z,56.60
2018-04-26T07:21:04.646Z,55.70
2018-04-26T07:22:06.495Z,56.10
2018-04-26T07:23:07.554Z,56.00
2018-04-26T07:24:08.706Z,56.10
2018-04-26T07:25:09.794Z,55.10
2018-04-26T07:26:10.883Z,55.20
2018-04-26T07:27:11.950Z,55.70
2018-04-26T07:28:13.063Z,55.70
2018-04-26T07:29:14.127Z,56.10
2018-04-26T07:30:15.207Z,56.20
2018-04-26T07:31:16.277Z,56.20
2018-04-26T07:32:17.371Z,56.20
2018-04-26T07:33:18.442Z,56.20
2018-04-26T07:34:19.502Z,56.30
2018-04-26T07:35:20.558Z,57.20
2018-04-26T07:36:21.613Z,56.40
2018-04-26T07:37:22.698Z,56.20
2018-04-26T07:38:24.515Z,56.30
2018-04-26T07:39:25.593Z,56.20
2018-04-26T07:40:26.710Z,56.50
2018-04-26T07:41:28.533Z,56.20
2018-04-26T07:42:29.582Z,56.20
2018-04-26T07:43:30.683Z,56.30
2018-04-26T07:44:31.754Z,57.10
2018-04-26T07:45:32.871Z,56.20
2018-04-26T07:46:33.935Z,56.20
2018-04-26T07:47:35.024Z,56.20
2018-04-26T07:48:36.080Z,56.20
2018-04-26T07:49:37.127Z,56.20
2018-04-26T07:50:38.208Z,56.50
2018-04-26T07:51:39.296Z,57.00
2018-04-26T07:52:40.404Z,57.10
2018-04-26T07:53:41.510Z,57.30
2018-04-26T07:54:42.584Z,57.20
2018-04-26T07:55:44.387Z,57.60
2018-04-26T07:56:45.435Z,57.70
2018-04-26T07:57:46.508Z,57.90
2018-04-26T07:58:47.554Z,58.00
2018-04-26T07:59:48.612Z,58.10
2018-04-26T08:00:49.683Z,58.80
2018-04-26T08:01:51.491Z,59.40
2018-04-26T08:02:52.588Z,58.90
2018-04-26T08:03:53.636Z,59.20
2018-04-26T08:04:55.446Z,59.00
2018-04-26T08:05:57.241Z,58.80
2018-04-26T08:06:58.298Z,58.80
2018-04-26T08:07:59.372Z,59.30
2018-04-26T08:09:00.470Z,58.50
2018-04-26T08:10:01.583Z,59.10
2018-04-26T08:11:02.651Z,59.10
2018-04-26T08:12:04.476Z,58.40
2018-04-26T08:13:05.540Z,58.50
2018-04-26T08:14:06.603Z,58.60
2018-04-26T08:15:07.656Z,58.20
2018-04-26T08:16:08.735Z,58.50
2018-04-26T08:17:09.787Z,58.70
2018-04-26T08:18:10.883Z,58.10
2018-04-26T08:19:11.931Z,58.20
2018-04-26T08:20:13.731Z,58.50
2018-04-26T08:21:14.808Z,58.40
2018-04-26T08:22:15.859Z,58.70
2018-04-26T08:23:17.664Z,58.60
2018-04-26T08:24:18.769Z,58.60
2018-04-26T08:25:19.843Z,58.60
2018-04-26T08:26:20.907Z,58.80
2018-04-26T08:27:21.982Z,58.60
2018-04-26T08:28:23.041Z,58.60
2018-04-26T08:29:24.107Z,58.50
2018-04-26T08:30:25.217Z,58.50
2018-04-26T08:31:26.206Z,58.90
2018-04-26T08:32:27.271Z,59.20
2018-04-26T08:33:28.335Z,60.00
2018-04-26T08:34:29.394Z,59.00
2018-04-26T08:35:30.451Z,59.30
2018-04-26T08:36:31.516Z,59.20
2018-04-26T08:37:33.335Z,59.10
2018-04-26T08:38:34.475Z,59.10
2018-04-26T08:39:35.544Z,59.00
2018-04-26T08:40:36.643Z,59.00
2018-04-26T08:41:37.711Z,58.90
2018-04-26T08:42:38.786Z,58.50
2018-04-26T08:43:39.839Z,58.90
2018-04-26T08:44:40.890Z,58.90
2018-04-26T08:45:42.686Z,59.00
2018-04-26T08:46:43.767Z,59.00
2018-04-26T08:47:45.570Z,59.30
2018-04-26T08:48:46.630Z,59.40
2018-04-26T08:49:47.703Z,59.00
2018-04-26T08:50:48.767Z,59.20
2018-04-26T08:51:49.835Z,59.00
2018-04-26T08:52:50.912Z,58.60
2018-04-26T08:53:52.009Z,59.70
2018-04-26T08:54:53.810Z,58.70
2018-04-26T08:55:54.867Z,58.70
2018-04-26T08:56:55.935Z,58.70
2018-04-26T08:57:57.018Z,58.60
2018-04-26T08:58:58.080Z,59.10
2018-04-26T08:59:59.148Z,58.50
2018-04-26T09:01:00.210Z,58.70
2018-04-26T09:02:01.310Z,58.90
2018-04-26T09:03:03.147Z,59.10
2018-04-26T09:04:04.228Z,59.10
2018-04-26T09:05:05.323Z,59.60
2018-04-26T09:06:06.389Z,59.20
2018-04-26T09:07:07.461Z,59.20
2018-04-26T09:08:08.523Z,59.10
2018-04-26T09:09:09.620Z,59.20
2018-04-26T09:10:11.430Z,58.90
2018-04-26T09:11:12.505Z,58.80
2018-04-26T09:12:14.319Z,58.50
2018-04-26T09:13:15.398Z,58.50
2018-04-26T09:14:16.516Z,58.00
2018-04-26T09:15:18.331Z,58.80
2018-04-26T09:16:19.408Z,58.80
2018-04-26T09:17:20.491Z,58.80
2018-04-26T09:18:21.572Z,58.70
2018-04-26T09:19:22.630Z,58.70
2018-04-26T09:20:23.707Z,58.50
2018-04-26T09:21:24.777Z,58.50
2018-04-26T09:22:25.864Z,58.20
2018-04-26T09:23:26.919Z,58.10
2018-04-26T09:24:28.017Z,57.90
2018-04-26T09:25:29.095Z,58.10
2018-04-26T09:26:30.878Z,57.40
2018-04-26T09:27:31.940Z,57.30
2018-04-26T09:28:33.018Z,57.70
2018-04-26T09:29:34.091Z,57.70
2018-04-26T09:30:35.158Z,57.50
2018-04-26T09:31:36.240Z,57.30
2018-04-26T09:32:37.307Z,56.50
2018-04-26T09:33:38.381Z,56.40
2018-04-26T09:34:39.471Z,56.20
2018-04-26T09:35:40.547Z,56.40
2018-04-26T09:36:41.641Z,54.50
2018-04-26T09:37:42.704Z,55.10
2018-04-26T09:38:43.851Z,55.60
2018-04-26T09:39:44.848Z,53.50
2018-04-26T09:40:46.658Z,53.40
2018-04-26T09:41:47.727Z,53.40
2018-04-26T09:42:49.538Z,53.00
2018-04-26T09:43:50.644Z,53.00
2018-04-26T09:44:51.767Z,52.90
2018-04-26T09:45:52.852Z,52.80
2018-04-26T09:46:53.908Z,52.30
2018-04-26T09:47:54.964Z,52.30
2018-04-26T09:48:56.059Z,52.20
2018-04-26T09:49:57.128Z,52.70
2018-04-26T09:50:58.183Z,52.50
2018-04-26T09:52:00.034Z,53.00
2018-04-26T09:53:01.130Z,53.00
2018-04-26T09:54:02.937Z,53.60
2018-04-26T09:55:04.073Z,53.50
2018-04-26T09:56:05.141Z,52.70
2018-04-26T09:57:06.968Z,52.20
2018-04-26T09:58:08.799Z,52.60
2018-04-26T09:59:09.871Z,52.60
2018-04-26T10:00:10.967Z,52.20
2018-04-26T10:01:12.091Z,52.20
2018-04-26T10:02:13.170Z,52.40
2018-04-26T10:03:14.976Z,51.20
2018-04-26T10:04:16.044Z,51.20
2018-04-26T10:05:17.874Z,52.20
2018-04-26T10:07:48.737Z,51.60
2018-04-26T10:08:49.832Z,51.50
2018-04-26T10:09:50.867Z,51.40
2018-04-26T10:10:51.961Z,51.30
2018-04-26T10:11:53.761Z,47.40
2018-04-26T10:12:54.890Z,47.50
2018-04-26T10:13:55.952Z,48.50
2018-04-26T10:14:57.015Z,47.70
2018-04-26T10:15:58.066Z,47.40
2018-04-26T10:16:59.157Z,46.60
2018-04-26T10:18:00.948Z,46.10
2018-04-26T10:19:02.017Z,46.10
2018-04-26T10:20:03.818Z,47.70
2018-04-26T10:21:04.920Z,47.70
2018-04-26T10:22:06.719Z,47.40
2018-04-26T10:23:08.559Z,46.00
2018-04-26T10:24:09.625Z,46.10
2018-04-26T10:25:10.729Z,44.90
2018-04-26T10:26:11.813Z,43.70
2018-04-26T10:27:12.875Z,44.60
2018-04-26T10:28:13.928Z,44.00
2018-04-26T10:29:14.975Z,43.90
2018-04-26T10:30:16.032Z,43.90
2018-04-26T10:31:17.878Z,44.30
2018-04-26T10:32:18.947Z,44.30
2018-04-26T10:33:20.035Z,43.30
2018-04-26T10:34:21.902Z,42.40
2018-04-26T10:35:23.030Z,42.30
2018-04-26T10:36:24.099Z,42.40
2018-04-26T10:37:25.147Z,42.90
2018-04-26T10:38:26.202Z,41.90
2018-04-26T10:39:27.283Z,42.70
2018-04-26T10:40:28.351Z,41.20
2018-04-26T10:41:29.463Z,41.80
2018-04-26T10:42:30.503Z,42.00
2018-04-26T10:43:31.562Z,42.90
2018-04-26T10:44:32.632Z,42.50
2018-04-26T10:45:33.698Z,43.70
2018-04-26T10:46:34.787Z,43.20
2018-04-26T10:47:35.863Z,45.00
2018-04-26T10:48:36.915Z,45.60
2018-04-26T10:49:37.992Z,46.50
2018-04-26T10:50:39.032Z,46.90
2018-04-26T10:51:40.105Z,47.00
2018-04-26T10:52:41.163Z,47.40
2018-04-26T10:53:42.967Z,47.00
2018-04-26T10:54:44.015Z,46.90
2018-04-26T10:55:45.068Z,46.90
2018-04-26T10:56:46.167Z,46.20
2018-04-26T10:57:47.222Z,46.60
2018-04-26T10:58:48.270Z,46.20
2018-04-26T10:59:50.079Z,46.50
2018-04-26T11:00:51.143Z,46.50
2018-04-26T11:01:52.216Z,46.40
2018-04-26T11:02:53.291Z,46.70
2018-04-26T11:03:54.374Z,46.40
2018-04-26T11:04:55.466Z,46.70
2018-04-26T11:05:56.518Z,46.50
2018-04-26T11:06:58.313Z,45.70
2018-04-26T11:07:59.391Z,45.80
2018-04-26T11:09:01.191Z,45.60
2018-04-26T11:10:02.266Z,45.60
2018-04-26T11:11:03.362Z,45.60
2018-04-26T11:12:04.464Z,45.70
2018-04-26T11:13:05.559Z,45.70
2018-04-26T11:14:06.619Z,45.60
2018-04-26T11:15:07.699Z,43.40
2018-04-26T11:16:08.810Z,44.00
2018-04-26T11:17:10.661Z,44.00
2018-04-26T11:18:11.667Z,43.90
2018-04-26T11:19:12.731Z,43.20
2018-04-26T11:20:13.793Z,42.00
2018-04-26T11:21:14.940Z,41.70
2018-04-26T11:22:15.949Z,41.60
2018-04-26T11:23:17.010Z,40.90
2018-04-26T11:24:18.818Z,40.70
2018-04-26T11:25:19.862Z,40.60
2018-04-26T11:26:20.914Z,40.40
2018-04-26T11:27:21.977Z,39.80
2018-04-26T11:28:23.042Z,39.90
2018-04-26T11:29:24.220Z,40.50
2018-04-26T11:30:25.215Z,40.90
2018-04-26T11:31:26.335Z,41.30
2018-04-26T11:32:27.428Z,41.00
2018-04-26T11:33:29.243Z,41.70
2018-04-26T11:34:30.311Z,41.70
2018-04-26T11:35:31.391Z,41.50
2018-04-26T11:36:32.442Z,41.50
2018-04-26T11:37:33.504Z,42.10
2018-04-26T11:38:35.291Z,39.40
2018-04-26T11:39:36.350Z,39.30
2018-04-26T11:40:37.406Z,39.70
2018-04-26T11:41:38.470Z,39.80
2018-04-26T11:42:39.545Z,38.10
2018-04-26T11:43:40.615Z,38.70
2018-04-26T11:44:41.700Z,39.50
2018-04-26T11:45:42.783Z,39.10
2018-04-26T11:46:43.868Z,38.20
2018-04-26T11:47:44.955Z,38.40
2018-04-26T11:48:46.018Z,38.80
2018-04-26T11:49:47.808Z,39.00
2018-04-26T11:50:49.623Z,39.00
2018-04-26T11:51:50.703Z,38.90
2018-04-26T11:52:51.780Z,38.30
2018-04-26T11:53:52.852Z,38.40
2018-04-26T11:54:53.934Z,37.40
2018-04-26T11:55:54.995Z,38.40
2018-04-26T11:56:56.073Z,38.30
2018-04-26T11:57:57.130Z,38.60
2018-04-26T11:58:58.189Z,38.20
2018-04-26T11:59:59.239Z,38.50
2018-04-26T12:01:00.322Z,38.40
2018-04-26T12:02:01.394Z,38.80
2018-04-26T12:03:02.502Z,39.30
2018-04-26T12:04:03.585Z,39.80
2018-04-26T12:05:04.662Z,40.10
2018-04-26T12:06:05.747Z,40.00
2018-04-26T12:07:07.551Z,39.70
2018-04-26T12:08:08.627Z,39.60
2018-04-26T12:09:09.691Z,39.00
2018-04-26T12:10:10.802Z,38.20
2018-04-26T12:11:11.887Z,38.00
2018-04-26T12:12:12.943Z,37.70
2018-04-26T12:13:14.060Z,36.00
2018-04-26T12:14:15.063Z,36.10
2018-04-26T12:15:16.117Z,36.00
2018-04-26T12:16:17.173Z,35.10
2018-04-26T12:17:18.241Z,35.30
2018-04-26T12:18:19.311Z,34.80
2018-04-26T12:19:20.371Z,36.20
2018-04-26T12:20:22.175Z,36.10
2018-04-26T12:21:23.294Z,36.00
2018-04-26T12:22:24.383Z,35.40
2018-04-26T12:23:26.186Z,34.10
2018-04-26T12:24:27.256Z,34.00
2018-04-26T12:25:28.345Z,34.40
2018-04-26T12:26:29.438Z,35.40
2018-04-26T12:27:31.250Z,34.60
2018-04-26T12:28:32.315Z,34.60
2018-04-26T12:29:33.362Z,34.60
2018-04-26T12:30:34.439Z,34.70
2018-04-26T12:31:35.492Z,34.30
2018-04-26T12:32:36.552Z,34.50
2018-04-26T12:33:37.643Z,34.10
2018-04-26T12:34:38.699Z,34.50
2018-04-26T12:35:39.759Z,35.20
2018-04-26T12:36:40.810Z,35.10
2018-04-26T12:37:41.860Z,34.50
2018-04-26T12:38:42.954Z,35.10
2018-04-26T12:39:43.986Z,35.20
2018-04-26T12:40:45.046Z,35.00
2018-04-26T12:41:46.107Z,36.00
2018-04-26T12:42:47.181Z,36.80
2018-04-26T12:43:48.244Z,38.30
2018-04-26T12:44:49.324Z,38.20
2018-04-26T12:45:51.140Z,38.40
2018-04-26T12:46:52.188Z,38.30
2018-04-26T12:47:53.240Z,38.30
2018-04-26T12:48:54.306Z,37.40
2018-04-26T12:49:55.387Z,38.00
2018-04-26T12:50:56.446Z,37.40
2018-04-26T12:51:57.502Z,37.60
2018-04-26T12:52:58.583Z,37.40
2018-04-26T12:53:59.653Z,37.50
2018-04-26T12:55:00.726Z,37.10
2018-04-26T12:56:01.792Z,36.80
2018-04-26T12:57:03.605Z,36.40
2018-04-26T12:58:04.714Z,36.20
2018-04-26T12:59:05.772Z,34.60
2018-04-26T13:00:06.858Z,35.40
2018-04-26T13:01:07.934Z,35.00
2018-04-26T13:02:09.011Z,35.20
2018-04-26T13:03:10.102Z,35.40
2018-04-26T13:04:11.176Z,35.40
2018-04-26T13:05:12.972Z,34.20
2018-04-26T13:06:14.045Z,34.20
2018-04-26T13:07:15.863Z,33.90
2018-04-26T13:08:16.919Z,33.90
2018-04-26T13:09:17.988Z,35.30
2018-04-26T13:10:19.056Z,36.10
2018-04-26T13:11:20.106Z,34.80
2018-04-26T13:12:21.171Z,34.50
2018-04-26T13:13:22.239Z,33.40
2018-04-26T13:14:24.035Z,33.70